Time;durP1;ratioP1;P1;durP2;ratioP2;P2;SDS_P1;SDS_P2;PMS_P1;PMS_P2;Temp;Humidity;BMP_temperature;BMP_pressure;BME280_temperature;BME280_humidity;BME280_pressure;Samples;Min_cycle;Max_cycle;Signal;HPM_P1;HPM_P2
2022/01/30 00:00:00;;;;;;;;;;;;;;;28.44;18.22;101220.88;5054912;28;1898;-42
2022/01/30 00:02:26;;;;;;;;;;;;;;;28.57;18.30;101222.97;5055766;28;847;-42
2022/01/30 00:04:51;;;;;;;;;;;;;;;28.38;18.17;101209.94;5056074;28;884;-42
2022/01/30 00:07:16;;;;;;;;;;;;;;;27.89;18.82;101209.19;5055833;28;829;-42
2022/01/30 00:09:42;;;;;;;;;;;;;;;27.61;19.24;101199.66;5055664;28;774;-42
2022/01/30 00:12:07;;;;;;;;;;;;;;;27.57;19.53;101207.28;5056102;28;795;-42
2022/01/30 00:14:36;;;;;;;;;;;;;;;27.55;19.61;101203.06;5055783;28;850;-42
2022/01/30 00:17:09;;;;;;;;;;;;;;;27.72;18.97;101199.31;5038161;28;810;-42
2022/01/30 00:20:12;;;;;;;;;;;;;;;27.67;19.09;101201.66;5051815;28;1901;-42
2022/01/30 00:25:14;;;;;;;;;;;;;;;27.55;19.25;101201.19;5036262;28;774;-42
2022/01/30 00:27:54;;;;;;;;;;;;;;;27.65;18.83;101198.28;5036092;28;833;-42
2022/01/30 00:30:19;;;;;;;;;;;;;;;28.15;18.46;101181.81;5036286;28;817;-42
2022/01/30 00:32:45;;;;;;;;;;;;;;;27.49;19.08;101183.00;5035704;28;1017;-42
2022/01/30 00:35:10;;;;;;;;;;;;;;;27.66;19.38;101182.91;5036660;28;825;-43
2022/01/30 00:37:40;;;;;;;;;;;;;;;27.37;19.68;101177.97;5036390;28;802;-43
2022/01/30 00:40:06;;;;;;;;;;;;;;;27.24;19.73;101166.88;5052592;28;1949;-43
2022/01/30 00:42:31;;;;;;;;;;;;;;;27.38;19.49;101162.59;5055832;28;833;-43
2022/01/30 00:44:56;;;;;;;;;;;;;;;27.44;19.42;101167.31;5044979;28;833;-43
2022/01/30 00:47:22;;;;;;;;;;;;;;;27.07;19.93;101160.66;5036257;28;895;-43
2022/01/30 00:49:47;;;;;;;;;;;;;;;27.38;19.81;101160.75;5036546;28;831;-43
2022/01/30 00:52:16;;;;;;;;;;;;;;;27.60;19.21;101157.44;5036209;28;889;-43
2022/01/30 00:54:41;;;;;;;;;;;;;;;27.94;18.83;101158.13;5036176;28;842;-43
2022/01/30 00:57:07;;;;;;;;;;;;;;;27.63;19.16;101152.53;5036566;28;774;-43
2022/01/30 00:59:32;;;;;;;;;;;;;;;27.67;19.44;101152.16;5035939;28;1953;-43
2022/01/30 01:01:57;;;;;;;;;;;;;;;27.81;18.75;101148.72;5050225;28;948;-43
2022/01/30 01:04:23;;;;;;;;;;;;;;;27.97;18.29;101146.94;5055111;28;817;-43
2022/01/30 01:06:50;;;;;;;;;;;;;;;28.51;18.32;101139.78;5055232;28;833;-42
2022/01/30 01:09:16;;;;;;;;;;;;;;;27.97;18.69;101128.88;5055007;28;834;-43
2022/01/30 01:25:11;;;;;;;;;;;;;;;27.23;19.47;101086.84;5041760;28;833;-43
2022/01/30 01:27:36;;;;;;;;;;;;;;;27.34;19.27;101085.63;5039507;28;764;-43
2022/01/30 01:30:01;;;;;;;;;;;;;;;27.13;19.55;101077.09;5039181;28;782;-43
2022/01/30 01:32:27;;;;;;;;;;;;;;;27.38;19.55;101077.00;5039641;28;762;-43
2022/01/30 01:34:52;;;;;;;;;;;;;;;27.70;19.22;101065.34;5039399;28;746;-45
2022/01/30 01:37:17;;;;;;;;;;;;;;;27.57;19.30;101064.06;5030613;28;821;-44
2022/01/30 01:39:43;;;;;;;;;;;;;;;27.77;18.83;101052.81;5039408;28;1902;-43
2022/01/30 01:42:08;;;;;;;;;;;;;;;28.05;18.44;101051.41;5053103;28;1232;-43
2022/01/30 01:44:42;;;;;;;;;;;;;;;28.43;18.28;101034.34;5049852;28;866;-43
2022/01/30 01:47:11;;;;;;;;;;;;;;;27.72;19.20;101034.44;5034799;28;834;-43
2022/01/30 01:49:38;;;;;;;;;;;;;;;27.50;19.08;101033.34;5047038;28;850;-43
2022/01/30 01:54:41;;;;;;;;;;;;;;;27.10;19.64;101017.22;5041964;28;712;-42
2022/01/30 01:57:06;;;;;;;;;;;;;;;27.49;19.48;101010.88;5057975;28;812;-43
2022/01/30 01:59:32;;;;;;;;;;;;;;;27.37;19.17;101012.34;5050657;28;1964;-42
2022/01/30 02:02:00;;;;;;;;;;;;;;;27.65;19.18;101016.38;5038808;28;814;-42
2022/01/30 02:04:25;;;;;;;;;;;;;;;27.66;19.21;101013.47;5038625;28;853;-42
2022/01/30 02:07:01;;;;;;;;;;;;;;;27.58;18.87;101002.72;5038744;28;802;-42
2022/01/30 02:09:30;;;;;;;;;;;;;;;27.65;19.20;100992.88;5038332;28;834;-43
2022/01/30 02:11:56;;;;;;;;;;;;;;;27.63;19.11;101005.72;5024723;28;820;-42
2022/01/30 02:25:48;;;;;;;;;;;;;;;28.35;18.12;101009.06;5002986;28;1304;-43
2022/01/30 02:28:17;;;;;;;;;;;;;;;28.10;18.25;101003.88;5057982;28;812;-43
2022/01/30 02:30:59;;;;;;;;;;;;;;;27.97;18.50;100990.13;5057181;28;817;-42
2022/01/30 02:33:24;;;;;;;;;;;;;;;27.74;18.58;100993.72;5057277;28;864;-43
2022/01/30 02:35:49;;;;;;;;;;;;;;;27.62;18.84;100982.44;5057666;28;765;-44
2022/01/30 02:38:17;;;;;;;;;;;;;;;27.38;18.92;100984.28;5056876;28;905;-42
2022/01/30 02:40:44;;;;;;;;;;;;;;;27.31;19.18;100981.47;5057284;28;1977;-42
2022/01/30 02:43:10;;;;;;;;;;;;;;;27.11;19.21;100981.94;5057231;28;786;-42
2022/01/30 02:45:42;;;;;;;;;;;;;;;26.99;19.58;100972.53;5056630;28;892;-43
2022/01/30 02:50:37;;;;;;;;;;;;;;;27.41;19.21;100954.22;5057277;28;911;-42
2022/01/30 02:53:05;;;;;;;;;;;;;;;27.93;18.88;100953.66;5056282;28;902;-42
2022/01/30 02:55:30;;;;;;;;;;;;;;;28.17;18.18;100955.28;5057281;28;842;-42
2022/01/30 02:57:56;;;;;;;;;;;;;;;27.48;18.96;100946.22;5056848;28;866;-42
2022/01/30 03:00:21;;;;;;;;;;;;;;;27.26;19.21;100940.66;5056412;28;1949;-42
2022/01/30 03:02:46;;;;;;;;;;;;;;;26.93;19.54;100933.56;5056990;28;806;-42
2022/01/30 03:05:12;;;;;;;;;;;;;;;27.14;19.57;100932.13;5056577;28;809;-41
2022/01/30 03:07:37;;;;;;;;;;;;;;;27.10;19.38;100922.69;5056740;28;793;-41
2022/01/30 03:10:02;;;;;;;;;;;;;;;27.02;19.57;100913.66;5038782;28;861;-42
2022/01/30 03:12:28;;;;;;;;;;;;;;;27.17;19.51;100914.72;5056905;28;851;-41
2022/01/30 03:14:53;;;;;;;;;;;;;;;27.53;19.20;100922.22;5037541;28;1285;-41
2022/01/30 03:17:18;;;;;;;;;;;;;;;27.23;19.38;100920.25;5056625;28;850;-42
2022/01/30 03:19:44;;;;;;;;;;;;;;;27.36;19.04;100919.66;5056113;28;1906;-42
2022/01/30 03:22:10;;;;;;;;;;;;;;;27.38;19.21;100911.34;5056116;28;1139;-42
2022/01/30 03:24:36;;;;;;;;;;;;;;;27.09;19.39;100902.13;5056200;28;924;-42
2022/01/30 03:27:03;;;;;;;;;;;;;;;27.47;19.10;100899.47;5056280;28;814;-42
2022/01/30 03:29:28;;;;;;;;;;;;;;;27.29;19.17;100907.06;5056339;28;979;-42
2022/01/30 03:31:53;;;;;;;;;;;;;;;27.90;18.57;100902.66;5056304;28;820;-42
2022/01/30 03:34:19;;;;;;;;;;;;;;;27.80;18.57;100911.03;5056212;28;763;-42
2022/01/30 03:36:44;;;;;;;;;;;;;;;27.64;18.65;100896.63;5056081;28;861;-42
2022/01/30 03:39:09;;;;;;;;;;;;;;;27.55;18.77;100900.41;5056599;28;1914;-42
2022/01/30 03:41:35;;;;;;;;;;;;;;;27.43;18.96;100891.91;5056428;28;913;-43
2022/01/30 03:44:00;;;;;;;;;;;;;;;27.54;19.09;100890.66;5055564;28;832;-42
2022/01/30 03:46:26;;;;;;;;;;;;;;;27.46;18.89;100889.69;5056389;28;974;-42
2022/01/30 03:48:51;;;;;;;;;;;;;;;27.23;19.12;100887.84;5056039;28;824;-42
2022/01/30 03:51:17;;;;;;;;;;;;;;;27.21;19.10;100887.19;5055835;28;897;-42
2022/01/30 03:53:42;;;;;;;;;;;;;;;27.21;19.38;100884.47;5056039;28;739;-42
2022/01/30 03:56:08;;;;;;;;;;;;;;;27.25;19.06;100877.72;5055954;28;777;-44
2022/01/30 03:58:33;;;;;;;;;;;;;;;27.60;19.10;100871.84;5038114;28;830;-42
2022/01/30 04:00:59;;;;;;;;;;;;;;;27.43;19.34;100871.13;5055372;28;1906;-42
2022/01/30 04:03:24;;;;;;;;;;;;;;;27.13;19.44;100879.97;5055743;28;824;-42
2022/01/30 04:05:49;;;;;;;;;;;;;;;27.24;19.15;100880.59;5055742;28;969;-42
2022/01/30 04:08:15;;;;;;;;;;;;;;;27.69;18.69;100878.03;5055585;28;904;-42
2022/01/30 04:10:40;;;;;;;;;;;;;;;27.66;18.91;100869.44;5055636;28;869;-43
2022/01/30 04:13:05;;;;;;;;;;;;;;;27.97;18.40;100880.13;5055865;28;777;-43
2022/01/30 04:15:31;;;;;;;;;;;;;;;27.80;18.63;100876.75;5055577;28;782;-43
2022/01/30 04:17:56;;;;;;;;;;;;;;;28.06;18.58;100864.63;5055918;28;806;-42
2022/01/30 04:20:22;;;;;;;;;;;;;;;27.42;19.25;100857.81;5055386;28;1957;-43
2022/01/30 04:22:47;;;;;;;;;;;;;;;26.68;19.72;100852.75;5048707;28;795;-42
2022/01/30 04:25:12;;;;;;;;;;;;;;;27.01;19.36;100855.25;5055797;28;875;-42
2022/01/30 04:27:38;;;;;;;;;;;;;;;26.88;19.56;100852.28;5054867;28;1535;-42
2022/01/30 04:30:04;;;;;;;;;;;;;;;26.98;19.42;100852.03;5054226;28;1379;-42
2022/01/30 04:32:29;;;;;;;;;;;;;;;27.14;19.61;100851.94;5055873;28;1495;-42
2022/01/30 04:34:58;;;;;;;;;;;;;;;27.19;19.54;100846.03;5055126;28;851;-43
2022/01/30 04:38:15;;;;;;;;;;;;;;;26.48;16.94;100836.16;5055654;28;830;-41
2022/01/30 04:56:54;;;;;;;;;;;;;;;24.65;14.97;100807.56;5034016;28;1310;-42
2022/01/30 04:59:29;;;;;;;;;;;;;;;24.31;14.53;100801.22;5052743;28;1898;-42
2022/01/30 05:02:48;;;;;;;;;;;;;;;22.78;14.43;100797.81;5058564;28;889;-41
2022/01/30 05:09:34;;;;;;;;;;;;;;;20.73;15.87;100788.22;5052689;28;849;-42
2022/01/30 05:11:59;;;;;;;;;;;;;;;20.59;15.61;100788.59;5058953;28;837;-41
2022/01/30 05:14:27;;;;;;;;;;;;;;;20.14;16.36;100780.88;5058011;28;901;-41
2022/01/30 05:16:53;;;;;;;;;;;;;;;19.00;16.60;100778.91;5059421;28;777;-40
2022/01/30 05:19:18;;;;;;;;;;;;;;;19.19;16.52;100779.06;5058083;28;1890;-41
2022/01/30 05:21:44;;;;;;;;;;;;;;;18.19;17.24;100771.09;5059545;28;781;-40
2022/01/30 05:24:09;;;;;;;;;;;;;;;18.75;16.77;100780.94;5059362;28;739;-41
2022/01/30 05:26:36;;;;;;;;;;;;;;;19.15;16.39;100771.47;5057623;28;886;-40
2022/01/30 05:29:02;;;;;;;;;;;;;;;19.10;16.80;100774.53;5040641;28;932;-41
2022/01/30 05:31:27;;;;;;;;;;;;;;;19.47;16.38;100764.38;5058742;28;854;-40
2022/01/30 05:33:53;;;;;;;;;;;;;;;19.72;16.00;100763.09;5058466;28;1375;-40
2022/01/30 05:36:18;;;;;;;;;;;;;;;19.53;16.45;100756.72;5058371;28;873;-38
2022/01/30 05:38:43;;;;;;;;;;;;;;;19.75;16.36;100749.50;5036762;28;1906;-40
2022/01/30 05:41:09;;;;;;;;;;;;;;;19.61;16.04;100747.19;5055288;28;846;-41
2022/01/30 05:43:34;;;;;;;;;;;;;;;19.16;16.44;100739.34;5058157;28;825;-42
2022/01/30 05:46:16;;;;;;;;;;;;;;;18.79;16.23;100735.22;5057963;28;975;-39
2022/01/30 05:48:41;;;;;;;;;;;;;;;16.83;18.62;100729.94;5058638;28;830;-41
2022/01/30 05:51:06;;;;;;;;;;;;;;;21.94;15.65;100727.19;5057890;28;877;-42
2022/01/30 05:53:32;;;;;;;;;;;;;;;23.38;15.08;100729.22;5058295;28;873;-42
2022/01/30 05:55:57;;;;;;;;;;;;;;;23.91;15.52;100733.69;5058352;28;782;-42
2022/01/30 05:58:22;;;;;;;;;;;;;;;24.48;15.19;100731.38;5058006;28;830;-42
2022/01/30 06:00:48;;;;;;;;;;;;;;;24.55;15.41;100725.19;5057356;28;1969;-42
2022/01/30 06:03:13;;;;;;;;;;;;;;;24.82;15.29;100712.41;5058190;28;840;-41
2022/01/30 06:05:40;;;;;;;;;;;;;;;25.13;15.04;100710.91;5057358;28;837;-41
2022/01/30 06:08:15;;;;;;;;;;;;;;;25.29;15.29;100706.50;5040201;28;982;-42
2022/01/30 06:10:40;;;;;;;;;;;;;;;25.48;15.19;100699.03;5058310;28;861;-41
2022/01/30 06:13:05;;;;;;;;;;;;;;;25.58;14.92;100693.44;5057887;28;781;-41
2022/01/30 06:15:31;;;;;;;;;;;;;;;25.42;15.15;100689.81;5057675;28;839;-42
2022/01/30 06:17:56;;;;;;;;;;;;;;;25.54;14.66;100693.81;5057630;28;833;-42
2022/01/30 06:20:21;;;;;;;;;;;;;;;25.58;15.69;100688.91;5057139;28;1894;-41
2022/01/30 06:22:47;;;;;;;;;;;;;;;25.80;16.02;100679.25;5057795;28;769;-40
2022/01/30 06:25:12;;;;;;;;;;;;;;;25.90;15.66;100686.28;5057436;28;980;-41
2022/01/30 06:27:37;;;;;;;;;;;;;;;25.97;15.34;100683.72;5057410;28;818;-37
2022/01/30 06:30:04;;;;;;;;;;;;;;;26.06;14.63;100684.53;5056667;28;828;-37
2022/01/30 06:32:29;;;;;;;;;;;;;;;25.83;13.72;100686.16;5057461;28;858;-37
2022/01/30 06:34:54;;;;;;;;;;;;;;;25.87;13.83;100686.63;5057458;28;881;-38
2022/01/30 06:37:20;;;;;;;;;;;;;;;25.85;15.08;100685.97;5057002;28;838;-37
2022/01/30 06:39:45;;;;;;;;;;;;;;;26.02;15.52;100697.50;5057370;28;1902;-38
2022/01/30 06:42:10;;;;;;;;;;;;;;;26.16;15.38;100685.13;5048734;28;1425;-37
2022/01/30 06:44:37;;;;;;;;;;;;;;;26.02;15.60;100674.09;5057143;28;838;-37
2022/01/30 06:47:03;;;;;;;;;;;;;;;26.21;15.27;100666.53;5057850;28;769;-38
2022/01/30 06:49:28;;;;;;;;;;;;;;;26.29;15.47;100676.47;5056814;28;846;-37
2022/01/30 06:51:53;;;;;;;;;;;;;;;26.48;15.13;100666.22;5057133;28;801;-37
2022/01/30 06:54:18;;;;;;;;;;;;;;;26.34;14.61;100668.69;5056751;28;865;-37
2022/01/30 06:56:44;;;;;;;;;;;;;;;26.26;14.69;100684.88;5056479;28;802;-36
2022/01/30 06:59:09;;;;;;;;;;;;;;;26.19;14.67;100684.78;5056942;28;1961;-37
2022/01/30 07:01:34;;;;;;;;;;;;;;;25.86;14.99;100677.69;5058421;28;1069;-35
2022/01/30 07:04:00;;;;;;;;;;;;;;;24.60;15.78;100670.88;5056456;28;917;-42
2022/01/30 07:06:25;;;;;;;;;;;;;;;23.95;16.03;100668.75;5057161;28;874;-41
2022/01/30 07:08:50;;;;;;;;;;;;;;;23.77;16.42;100676.06;5056515;28;825;-42
2022/01/30 07:11:16;;;;;;;;;;;;;;;23.57;16.58;100670.97;5056612;28;818;-42
2022/01/30 07:13:41;;;;;;;;;;;;;;;23.41;16.50;100671.69;5038681;28;1129;-41
2022/01/30 07:16:07;;;;;;;;;;;;;;;23.18;16.84;100674.91;5038422;28;880;-42
2022/01/30 07:18:32;;;;;;;;;;;;;;;22.83;15.86;100672.16;5055994;28;928;-41
2022/01/30 07:20:57;;;;;;;;;;;;;;;22.43;15.58;100664.44;5046058;28;1964;-42
2022/01/30 07:23:23;;;;;;;;;;;;;;;22.30;15.44;100655.91;5037919;28;778;-42
2022/01/30 07:25:48;;;;;;;;;;;;;;;22.47;15.46;100649.69;5036893;28;837;-42
2022/01/30 07:28:13;;;;;;;;;;;;;;;22.76;16.28;100642.44;5037421;28;797;-42
2022/01/30 07:30:39;;;;;;;;;;;;;;;22.97;16.59;100644.75;5036821;28;850;-42
2022/01/30 07:33:04;;;;;;;;;;;;;;;23.09;17.06;100637.28;5036350;28;798;-42
2022/01/30 07:35:29;;;;;;;;;;;;;;;23.10;17.34;100638.13;5037393;28;850;-42
2022/01/30 07:37:54;;;;;;;;;;;;;;;23.07;17.60;100630.41;5036847;28;993;-42
2022/01/30 07:40:20;;;;;;;;;;;;;;;23.11;17.59;100624.56;5036662;28;1957;-42
2022/01/30 07:42:45;;;;;;;;;;;;;;;23.14;17.64;100627.94;5037305;28;900;-42
2022/01/30 07:45:11;;;;;;;;;;;;;;;23.16;18.01;100621.41;5036418;28;909;-42
2022/01/30 07:47:36;;;;;;;;;;;;;;;23.26;17.93;100623.09;5030119;28;763;-42
2022/01/30 07:50:01;;;;;;;;;;;;;;;23.36;17.88;100619.31;5037465;28;901;-42
2022/01/30 07:52:26;;;;;;;;;;;;;;;23.36;17.54;100619.31;5037061;28;832;-42
2022/01/30 07:54:52;;;;;;;;;;;;;;;23.41;17.67;100608.13;5036718;28;750;-42
2022/01/30 07:57:18;;;;;;;;;;;;;;;23.22;17.63;100598.47;5037034;28;780;-41
2022/01/30 07:59:44;;;;;;;;;;;;;;;22.99;17.96;100594.47;5028172;28;1898;-42
2022/01/30 08:02:09;;;;;;;;;;;;;;;22.91;17.67;100593.56;5032798;28;731;-41
2022/01/30 08:04:34;;;;;;;;;;;;;;;22.70;18.20;100584.94;5037109;28;786;-41
2022/01/30 08:07:00;;;;;;;;;;;;;;;22.66;18.12;100577.31;5037341;28;1484;-41
2022/01/30 08:09:26;;;;;;;;;;;;;;;22.50;18.40;100576.19;5036665;28;781;-42
2022/01/30 08:11:51;;;;;;;;;;;;;;;22.51;18.40;100580.56;5036434;28;869;-42
2022/01/30 08:14:16;;;;;;;;;;;;;;;22.38;18.53;100576.44;5036520;28;818;-42
2022/01/30 08:16:42;;;;;;;;;;;;;;;22.39;18.67;100585.31;5036375;28;901;-41
2022/01/30 08:19:07;;;;;;;;;;;;;;;22.26;18.64;100585.72;5036471;28;1902;-43
2022/01/30 08:21:32;;;;;;;;;;;;;;;22.54;17.76;100576.72;5038078;28;802;-43
2022/01/30 08:23:58;;;;;;;;;;;;;;;22.57;17.56;100571.88;5039724;28;782;-42
2022/01/30 08:26:23;;;;;;;;;;;;;;;22.38;17.25;100565.72;5020967;28;836;-42
2022/01/30 08:28:48;;;;;;;;;;;;;;;22.47;16.93;100568.47;5021707;28;947;-42
2022/01/30 08:31:14;;;;;;;;;;;;;;;22.34;17.07;100548.25;5021380;28;843;-42
2022/01/30 08:33:39;;;;;;;;;;;;;;;22.44;16.91;100544.66;5020725;28;915;-42
2022/01/30 08:36:05;;;;;;;;;;;;;;;22.48;16.86;100548.69;5020732;28;850;-42
2022/01/30 08:38:30;;;;;;;;;;;;;;;22.41;16.85;100548.47;5022141;28;1464;-41
2022/01/30 08:40:55;;;;;;;;;;;;;;;22.42;16.95;100555.50;5020172;28;1918;-41
2022/01/30 08:43:22;;;;;;;;;;;;;;;22.43;16.99;100553.69;5020913;28;794;-41
2022/01/30 08:45:50;;;;;;;;;;;;;;;22.41;17.19;100550.31;5027591;28;766;-42
2022/01/30 08:48:16;;;;;;;;;;;;;;;22.42;17.05;100542.09;5020754;28;770;-43
2022/01/30 08:50:41;;;;;;;;;;;;;;;22.36;17.11;100542.75;5024781;28;779;-42
2022/01/30 08:53:06;;;;;;;;;;;;;;;22.26;17.34;100537.47;5020195;28;761;-42
2022/01/30 08:55:33;;;;;;;;;;;;;;;22.29;17.72;100537.16;5020394;28;885;-42
2022/01/30 08:57:58;;;;;;;;;;;;;;;22.42;18.51;100543.97;5020071;28;854;-41
2022/01/30 09:00:23;;;;;;;;;;;;;;;22.56;18.44;100553.25;5025168;28;1910;-41
2022/01/30 09:02:49;;;;;;;;;;;;;;;22.63;18.59;100560.56;5021326;28;858;-42
2022/01/30 09:05:14;;;;;;;;;;;;;;;22.64;18.85;100561.41;5020548;28;810;-41
2022/01/30 09:07:39;;;;;;;;;;;;;;;22.69;19.02;100561.78;5020482;28;778;-41
2022/01/30 09:10:05;;;;;;;;;;;;;;;22.73;19.03;100565.84;5020140;28;818;-41
2022/01/30 09:12:31;;;;;;;;;;;;;;;22.74;19.15;100572.00;5020169;28;1110;-41
2022/01/30 09:14:56;;;;;;;;;;;;;;;22.71;19.20;100564.28;5027567;28;838;-42
2022/01/30 09:17:22;;;;;;;;;;;;;;;22.68;19.61;100545.84;5019530;28;854;-42
2022/01/30 09:19:48;;;;;;;;;;;;;;;22.80;19.43;100560.69;5025341;28;1956;-42
2022/01/30 09:22:14;;;;;;;;;;;;;;;22.83;19.40;100559.50;5059583;28;807;-42
2022/01/30 09:24:39;;;;;;;;;;;;;;;22.83;19.52;100567.56;5058699;28;1000;-42
2022/01/30 09:27:05;;;;;;;;;;;;;;;22.84;19.85;100563.88;5058776;28;822;-42
2022/01/30 09:29:30;;;;;;;;;;;;;;;22.86;20.09;100575.28;5058639;28;955;-42
2022/01/30 09:31:56;;;;;;;;;;;;;;;22.73;19.73;100576.56;5058240;28;799;-41
2022/01/30 09:34:21;;;;;;;;;;;;;;;22.80;19.36;100582.13;5059398;28;837;-42
2022/01/30 09:36:47;;;;;;;;;;;;;;;22.54;19.23;100582.09;5058810;28;1425;-42
2022/01/30 09:39:12;;;;;;;;;;;;;;;22.60;19.38;100574.31;5058931;28;1909;-42
2022/01/30 09:41:37;;;;;;;;;;;;;;;22.55;20.17;100575.72;5060354;28;921;-42
2022/01/30 09:44:03;;;;;;;;;;;;;;;22.34;19.88;100563.50;5058505;28;849;-42
2022/01/30 09:46:28;;;;;;;;;;;;;;;22.35;19.71;100558.00;5058682;28;813;-41
2022/01/30 09:48:54;;;;;;;;;;;;;;;22.54;19.78;100550.75;5059018;28;814;-41
2022/01/30 09:51:19;;;;;;;;;;;;;;;22.73;19.95;100541.69;5058867;28;925;-42
2022/01/30 09:53:44;;;;;;;;;;;;;;;22.86;19.84;100545.78;5052005;28;1497;-41
2022/01/30 09:56:10;;;;;;;;;;;;;;;22.96;19.88;100540.28;5062920;28;1101;-42
2022/01/30 09:58:35;;;;;;;;;;;;;;;22.93;20.01;100536.09;5059342;28;790;-42
2022/01/30 10:01:01;;;;;;;;;;;;;;;22.96;20.05;100532.25;5057721;28;1953;-42
2022/01/30 10:03:29;;;;;;;;;;;;;;;23.07;19.99;100525.78;5058581;28;782;-42
2022/01/30 10:06:00;;;;;;;;;;;;;;;23.03;20.12;100527.94;5058316;28;849;-41
2022/01/30 10:08:26;;;;;;;;;;;;;;;22.91;20.32;100531.88;5058309;28;809;-42
2022/01/30 10:10:58;;;;;;;;;;;;;;;22.97;20.28;100521.34;5058307;28;912;-42
2022/01/30 10:13:29;;;;;;;;;;;;;;;22.98;20.28;100515.00;5058469;28;809;-42
2022/01/30 10:16:00;;;;;;;;;;;;;;;22.99;20.38;100511.31;5057662;28;967;-42
2022/01/30 10:18:27;;;;;;;;;;;;;;;22.97;20.34;100502.56;5058267;28;790;-42
2022/01/30 10:20:52;;;;;;;;;;;;;;;23.03;20.40;100485.00;5039674;28;1897;-42
2022/01/30 10:23:17;;;;;;;;;;;;;;;23.47;20.06;100481.28;5054587;28;1441;-42
2022/01/30 10:25:50;;;;;;;;;;;;;;;23.65;19.86;100476.78;5053514;28;1116;-41
2022/01/30 10:28:15;;;;;;;;;;;;;;;23.70;20.11;100467.25;5057410;28;1306;-42
2022/01/30 10:30:40;;;;;;;;;;;;;;;23.66;20.09;100460.53;5055036;28;1298;-42
2022/01/30 10:33:08;;;;;;;;;;;;;;;23.40;19.59;100450.75;5055257;28;1377;-42
2022/01/30 10:35:49;;;;;;;;;;;;;;;23.35;20.08;100424.41;5057393;28;869;-42
2022/01/30 10:38:18;;;;;;;;;;;;;;;23.51;20.06;100382.47;5055251;28;1049;-42
2022/01/30 10:40:50;;;;;;;;;;;;;;;23.66;19.79;100379.97;5058041;28;1910;-42
2022/01/30 10:43:16;;;;;;;;;;;;;;;23.73;19.92;100369.38;5056995;28;807;-42
2022/01/30 10:45:41;;;;;;;;;;;;;;;23.67;20.31;100360.16;5056974;28;897;-41
2022/01/30 10:48:11;;;;;;;;;;;;;;;23.52;20.52;100362.69;5058111;28;763;-42
2022/01/30 10:50:37;;;;;;;;;;;;;;;23.53;20.60;100352.78;5057660;28;781;-43
2022/01/30 10:53:03;;;;;;;;;;;;;;;22.96;21.41;100334.59;5057512;28;761;-42
2022/01/30 10:55:31;;;;;;;;;;;;;;;22.71;21.90;100339.06;5057705;28;825;-42
2022/01/30 10:57:58;;;;;;;;;;;;;;;22.49;22.21;100333.25;5056955;28;877;-43
2022/01/30 11:00:34;;;;;;;;;;;;;;;22.53;22.30;100320.38;5056698;28;1949;-42
2022/01/30 11:03:00;;;;;;;;;;;;;;;22.70;21.85;100303.38;5057374;28;740;-43
2022/01/30 11:05:25;;;;;;;;;;;;;;;22.99;21.51;100299.41;5057232;28;738;-41
2022/01/30 11:07:52;;;;;;;;;;;;;;;23.28;21.49;100296.38;5057405;28;996;-41
2022/01/30 11:10:23;;;;;;;;;;;;;;;23.20;21.29;100290.03;5056325;28;1022;-42
2022/01/30 11:15:54;;;;;;;;;;;;;;;22.85;21.69;100283.97;5016915;28;1302;-42
2022/01/30 11:18:19;;;;;;;;;;;;;;;23.11;21.50;100267.72;5057297;28;762;-41
2022/01/30 11:20:44;;;;;;;;;;;;;;;23.18;21.45;100267.88;5056598;28;1903;-42
2022/01/30 11:23:09;;;;;;;;;;;;;;;23.15;21.50;100265.53;5056766;28;826;-41
2022/01/30 11:25:35;;;;;;;;;;;;;;;23.26;21.46;100252.78;5038724;28;897;-42
2022/01/30 11:28:03;;;;;;;;;;;;;;;23.29;21.18;100242.53;5038748;28;891;-41
2022/01/30 11:30:28;;;;;;;;;;;;;;;23.19;21.27;100240.03;5056445;28;872;-41
2022/01/30 11:32:55;;;;;;;;;;;;;;;23.29;21.51;100241.72;5056340;28;1195;-41
2022/01/30 11:35:20;;;;;;;;;;;;;;;23.50;21.51;100235.84;5056333;28;1063;-41
2022/01/30 11:37:46;;;;;;;;;;;;;;;23.40;21.67;100219.09;5056427;28;837;-41
2022/01/30 11:40:15;;;;;;;;;;;;;;;23.45;21.90;100212.19;5037916;28;1910;-43
2022/01/30 11:42:42;;;;;;;;;;;;;;;23.32;21.76;100211.88;5056388;28;801;-41
2022/01/30 11:45:07;;;;;;;;;;;;;;;23.37;21.75;100212.19;5053497;28;1235;-42
2022/01/30 11:47:55;;;;;;;;;;;;;;;23.35;21.97;100190.91;5056684;28;1227;-42
2022/01/30 11:50:21;;;;;;;;;;;;;;;23.50;21.78;100195.56;5054145;28;1132;-42
2022/01/30 11:52:46;;;;;;;;;;;;;;;23.56;21.69;100199.41;5039845;28;836;-41
2022/01/30 11:55:30;;;;;;;;;;;;;;;23.38;21.83;100187.00;5055989;28;889;-43
2022/01/30 11:57:56;;;;;;;;;;;;;;;23.44;21.78;100180.97;5056302;28;1020;-43
2022/01/30 12:00:32;;;;;;;;;;;;;;;23.54;21.67;100167.34;5054995;28;1902;-42
2022/01/30 12:03:27;;;;;;;;;;;;;;;23.34;22.00;100167.72;5056201;28;1363;-42
2022/01/30 12:05:53;;;;;;;;;;;;;;;23.34;22.28;100174.94;5036351;28;1282;-42
2022/01/30 12:08:37;;;;;;;;;;;;;;;23.44;21.94;100174.81;5055775;28;813;-42
2022/01/30 12:11:02;;;;;;;;;;;;;;;23.50;22.12;100168.72;5056219;28;873;-42
2022/01/30 12:13:48;;;;;;;;;;;;;;;23.60;22.25;100163.16;5055208;28;826;-42
2022/01/30 12:16:31;;;;;;;;;;;;;;;23.55;22.01;100160.16;5049967;28;2187;-42
2022/01/30 12:18:57;;;;;;;;;;;;;;;23.33;22.71;100160.69;5055887;28;1901;-43
2022/01/30 12:21:26;;;;;;;;;;;;;;;23.26;22.41;100153.47;5037030;28;1057;-42
2022/01/30 12:23:51;;;;;;;;;;;;;;;23.36;22.49;100146.09;5056102;28;807;-43
2022/01/30 12:26:16;;;;;;;;;;;;;;;23.38;22.57;100143.22;5055620;28;877;-42
2022/01/30 12:28:43;;;;;;;;;;;;;;;23.42;22.44;100140.03;5048539;28;1267;-43
2022/01/30 12:31:28;;;;;;;;;;;;;;;23.47;22.45;100143.06;5053373;28;1223;-42
2022/01/30 12:34:02;;;;;;;;;;;;;;;23.67;22.57;100131.91;5052072;28;1390;-44
2022/01/30 12:36:28;;;;;;;;;;;;;;;23.78;24.73;100122.63;5055247;28;845;-45
2022/01/30 12:39:22;;;;;;;;;;;;;;;23.99;24.75;100109.59;5055847;28;877;-45
2022/01/30 12:41:47;;;;;;;;;;;;;;;23.79;21.34;100091.25;5053583;28;1565;-43
2022/01/30 12:44:13;;;;;;;;;;;;;;;23.09;20.62;100081.94;5053996;28;877;-43
2022/01/30 12:46:39;;;;;;;;;;;;;;;22.84;21.11;100070.41;5036294;28;838;-44
2022/01/30 12:49:09;;;;;;;;;;;;;;;23.03;21.35;100073.72;5049694;28;892;-43
2022/01/30 12:51:34;;;;;;;;;;;;;;;23.05;21.44;100077.94;5057135;28;993;-43
2022/01/30 12:54:00;;;;;;;;;;;;;;;23.00;21.08;100061.50;5049834;28;895;-43
2022/01/30 12:56:25;;;;;;;;;;;;;;;22.98;20.85;100067.06;5037652;28;803;-43
2022/01/30 12:58:53;;;;;;;;;;;;;;;23.12;20.50;100070.03;5054996;28;856;-43
2022/01/30 13:01:18;;;;;;;;;;;;;;;23.34;19.67;100057.69;5049176;28;1898;-43
2022/01/30 13:03:43;;;;;;;;;;;;;;;23.17;19.47;100056.91;5037431;28;1313;-43
2022/01/30 13:06:09;;;;;;;;;;;;;;;23.24;18.65;100049.84;5055619;28;825;-42
2022/01/30 13:08:43;;;;;;;;;;;;;;;23.21;18.32;100035.94;5059802;28;767;-43
2022/01/30 13:11:22;;;;;;;;;;;;;;;23.22;17.52;100030.41;5059264;28;993;-43
2022/01/30 13:13:56;;;;;;;;;;;;;;;22.89;16.76;100035.88;5053848;28;868;-44
2022/01/30 13:16:23;;;;;;;;;;;;;;;22.70;16.23;100021.88;5059010;28;790;-44
2022/01/30 13:18:48;;;;;;;;;;;;;;;22.50;16.67;100022.19;5058994;28;813;-44
2022/01/30 13:21:13;;;;;;;;;;;;;;;22.46;16.02;100011.97;5046132;28;1906;-43
2022/01/30 13:23:44;;;;;;;;;;;;;;;22.22;16.50;100002.97;5027405;28;1263;-42
2022/01/30 13:26:10;;;;;;;;;;;;;;;22.26;16.40;100002.47;5039349;28;889;-43
2022/01/30 13:28:35;;;;;;;;;;;;;;;22.25;16.46;99998.09;5021780;28;845;-43
2022/01/30 13:31:16;;;;;;;;;;;;;;;22.36;16.35;99999.59;5039235;28;1031;-43
2022/01/30 13:33:41;;;;;;;;;;;;;;;22.39;16.51;100003.78;5039305;28;829;-44
2022/01/30 13:36:06;;;;;;;;;;;;;;;22.38;16.75;100002.13;5038983;28;877;-43
2022/01/30 13:38:39;;;;;;;;;;;;;;;22.33;17.09;99999.09;5054449;28;830;-43
2022/01/30 13:41:05;;;;;;;;;;;;;;;22.47;17.21;100001.09;5058876;28;1977;-43
2022/01/30 13:43:35;;;;;;;;;;;;;;;22.57;18.18;99998.22;5043499;28;857;-44
2022/01/30 13:48:44;;;;;;;;;;;;;;;22.47;19.20;100001.09;5038930;28;775;-43
2022/01/30 13:51:09;;;;;;;;;;;;;;;22.55;19.19;99994.03;5039010;28;790;-44
2022/01/30 13:53:37;;;;;;;;;;;;;;;22.50;18.92;99981.16;5039236;28;735;-43